createdAt,value
2019-02-07T00:01:53.797Z,100503.21
2019-02-07T00:04:24.273Z,100502.63
2019-02-07T00:06:54.888Z,100504.42
2019-02-07T00:09:25.496Z,100505.70
2019-02-07T00:11:55.966Z,100510.50
2019-02-07T00:14:26.534Z,100519.34
2019-02-07T00:16:57.041Z,100517.41
2019-02-07T00:19:27.632Z,100518.04
2019-02-07T00:21:58.095Z,100517.41
2019-02-07T00:24:28.881Z,100519.42
2019-02-07T00:26:59.350Z,100528.14
2019-02-07T00:29:29.845Z,100522.80
2019-02-07T00:32:00.391Z,100525.95
2019-02-07T00:34:30.955Z,100524.22
2019-02-07T00:37:01.931Z,100524.08
2019-02-07T00:39:32.473Z,100522.72
2019-02-07T00:42:03.233Z,100530.17
2019-02-07T00:44:33.692Z,100527.30
2019-02-07T00:47:04.258Z,100525.57
2019-02-07T00:49:34.715Z,100520.36
2019-02-07T00:52:05.316Z,100531.27
2019-02-07T00:54:35.853Z,100529.20
2019-02-07T00:57:06.386Z,100529.73
2019-02-07T00:59:36.871Z,100525.50
2019-02-07T01:02:07.956Z,100523.81
2019-02-07T01:04:38.585Z,100508.53
2019-02-07T01:07:09.271Z,100516.27
2019-02-07T01:09:39.861Z,100516.20
2019-02-07T01:12:10.460Z,100516.91
2019-02-07T01:14:41.061Z,100509.31
2019-02-07T01:17:12.004Z,100511.82
2019-02-07T01:19:42.615Z,100506.95
2019-02-07T01:22:13.082Z,100507.32
2019-02-07T01:24:43.538Z,100514.70
2019-02-07T01:27:14.245Z,100506.20
2019-02-07T01:29:44.696Z,100505.22
2019-02-07T01:32:15.181Z,100502.15
2019-02-07T01:34:45.672Z,100510.24
2019-02-07T01:37:16.350Z,100508.03
2019-02-07T01:39:47.017Z,100507.32
2019-02-07T01:42:17.517Z,100503.28
2019-02-07T01:44:48.453Z,100507.73
2019-02-07T01:47:18.905Z,100505.55
2019-02-07T01:49:49.368Z,100504.52
2019-02-07T01:52:19.961Z,100504.84
2019-02-07T01:54:50.429Z,100496.19
2019-02-07T01:57:20.893Z,100503.88
2019-02-07T01:59:51.404Z,100500.34
2019-02-07T02:02:21.859Z,100495.78
2019-02-07T02:04:52.349Z,100499.90
2019-02-07T02:07:22.864Z,100493.30
2019-02-07T02:09:53.563Z,100490.82
2019-02-07T02:12:24.311Z,100485.21
2019-02-07T02:14:54.847Z,100485.55
2019-02-07T02:17:25.340Z,100484.91
2019-02-07T02:19:55.796Z,100486.48
2019-02-07T02:22:26.303Z,100483.94
2019-02-07T02:24:56.799Z,100483.30
2019-02-07T02:27:27.259Z,100484.24
2019-02-07T02:29:57.956Z,100478.73
2019-02-07T02:32:28.412Z,100485.84
2019-02-07T02:34:58.904Z,100490.38
2019-02-07T02:37:29.339Z,100488.31
2019-02-07T02:39:59.962Z,100497.30
2019-02-07T02:42:30.551Z,100492.09
2019-02-07T02:45:01.004Z,100495.71
2019-02-07T02:47:31.691Z,100495.59
2019-02-07T02:50:02.155Z,100496.48
2019-02-07T02:52:32.717Z,100499.48
2019-02-07T02:55:03.281Z,100499.38
2019-02-07T02:57:33.736Z,100503.89
2019-02-07T03:00:06.676Z,100491.42
2019-02-07T03:03:01.888Z,100495.30
2019-02-07T03:05:49.691Z,100497.13
2019-02-07T03:08:37.825Z,100498.81
2019-02-07T03:11:19.982Z,100500.16
2019-02-07T03:14:05.863Z,100503.12
2019-02-07T03:16:53.469Z,100499.86
2019-02-07T03:19:40.268Z,100505.00
2019-02-07T03:22:41.215Z,100506.69
2019-02-07T03:25:33.607Z,100506.30
2019-02-07T03:28:22.256Z,100505.39
2019-02-07T03:31:23.839Z,100508.93
2019-02-07T03:34:04.799Z,100504.48
2019-02-07T03:36:48.567Z,100505.59
2019-02-07T03:39:37.975Z,100510.06
2019-02-07T03:42:27.404Z,100510.67
2019-02-07T03:45:22.798Z,100513.11
2019-02-07T03:48:12.134Z,100525.56
2019-02-07T03:51:08.285Z,100525.22
2019-02-07T03:53:55.995Z,100524.17
2019-02-07T03:56:45.325Z,100517.39
2019-02-07T03:59:33.502Z,100523.69
2019-02-07T04:02:33.990Z,100526.25
2019-02-07T04:05:22.722Z,100527.59
2019-02-07T04:08:10.470Z,100526.33
2019-02-07T04:11:05.536Z,100526.28
2019-02-07T04:14:01.062Z,100528.09
2019-02-07T04:16:43.958Z,100529.31
2019-02-07T04:19:26.071Z,100530.27
2019-02-07T04:22:13.779Z,100531.61
2019-02-07T04:25:01.740Z,100521.75
2019-02-07T04:27:51.025Z,100520.05
2019-02-07T04:30:38.787Z,100524.67
2019-02-07T04:33:28.126Z,100524.98
2019-02-07T04:36:35.308Z,100523.91
2019-02-07T04:39:36.258Z,100517.66
2019-02-07T04:42:17.739Z,100518.03
2019-02-07T04:45:05.453Z,100519.66
2019-02-07T04:47:57.981Z,100522.29
2019-02-07T04:50:43.717Z,100526.81
2019-02-07T04:53:41.935Z,100530.21
2019-02-07T04:56:28.476Z,100533.42
2019-02-07T04:59:14.758Z,100533.06
2019-02-07T05:01:59.930Z,100530.03
2019-02-07T05:04:44.491Z,100537.94
2019-02-07T05:07:25.750Z,100539.09
2019-02-07T05:10:15.079Z,100533.01
2019-02-07T05:13:02.792Z,100534.72
2019-02-07T05:16:04.091Z,100542.62
2019-02-07T05:18:56.392Z,100538.39
2019-02-07T05:21:54.548Z,100548.13
2019-02-07T05:24:43.987Z,100545.19
2019-02-07T05:27:39.724Z,100544.66
2019-02-07T05:30:34.252Z,100547.59
2019-02-07T05:33:18.211Z,100428.00
2019-02-07T05:36:16.699Z,100553.80
2019-02-07T05:39:24.079Z,100557.83
2019-02-07T05:42:25.718Z,100565.66
2019-02-07T05:45:20.770Z,100570.47
2019-02-07T05:48:08.547Z,100568.48
2019-02-07T05:51:12.859Z,100576.73
2019-02-07T05:54:00.912Z,100585.66
2019-02-07T05:56:41.876Z,100587.05
2019-02-07T05:59:37.278Z,100587.17
2019-02-07T06:02:26.674Z,100589.75
2019-02-07T06:05:16.020Z,100590.18
2019-02-07T06:08:11.465Z,100590.47
2019-02-07T06:10:52.095Z,100589.95
2019-02-07T06:13:47.592Z,100594.52
2019-02-07T06:17:02.357Z,100599.98
2019-02-07T06:19:40.499Z,100607.59
2019-02-07T06:22:28.311Z,100613.53
2019-02-07T06:25:23.764Z,100608.16
2019-02-07T06:28:13.209Z,100485.05
2019-02-07T06:31:01.484Z,100611.94
2019-02-07T06:34:09.157Z,100611.14
2019-02-07T06:36:57.386Z,100610.34
2019-02-07T06:39:38.092Z,100607.30
2019-02-07T06:42:20.043Z,100603.05
2019-02-07T06:45:07.964Z,100607.89
2019-02-07T06:48:00.268Z,100600.64
2019-02-07T06:50:48.068Z,100595.67
2019-02-07T06:53:46.244Z,100594.75
2019-02-07T06:56:35.582Z,100589.07
2019-02-07T06:59:18.470Z,100588.38
2019-02-07T07:02:06.449Z,100582.75
2019-02-07T07:05:04.691Z,100584.09
2019-02-07T07:08:02.924Z,100587.73
2019-02-07T07:11:04.410Z,100586.84
2019-02-07T07:13:59.772Z,100591.59
2019-02-07T07:16:46.734Z,100594.41
2019-02-07T07:19:34.786Z,100594.23
2019-02-07T07:22:27.568Z,100599.74
2019-02-07T07:25:19.696Z,100601.38
2019-02-07T07:28:19.283Z,100608.61
2019-02-07T07:31:17.985Z,100611.05
2019-02-07T07:34:19.640Z,100601.34
2019-02-07T07:37:00.036Z,100607.07
2019-02-07T07:39:52.416Z,100602.33
2019-02-07T07:42:53.706Z,100598.16
2019-02-07T07:45:41.698Z,100593.22
2019-02-07T07:48:30.145Z,100589.11
2019-02-07T07:51:12.428Z,100585.17
2019-02-07T07:54:01.912Z,100593.37
2019-02-07T07:56:47.511Z,100587.44
2019-02-07T07:59:37.117Z,100589.36
2019-02-07T08:02:35.680Z,100583.59
2019-02-07T08:05:32.539Z,100584.38
2019-02-07T08:08:24.966Z,100584.83
2019-02-07T08:11:29.390Z,100591.98
2019-02-07T08:14:37.315Z,100588.25
2019-02-07T08:17:32.757Z,100584.27
2019-02-07T08:20:17.459Z,100585.87
2019-02-07T08:23:15.828Z,100591.09
2019-02-07T08:26:14.487Z,100589.17
2019-02-07T08:29:02.559Z,100585.95
2019-02-07T08:31:46.429Z,100584.16
2019-02-07T08:34:34.777Z,100592.78
2019-02-07T08:37:33.199Z,100588.58
2019-02-07T08:40:31.327Z,100585.39
2019-02-07T08:43:20.915Z,100589.17
2019-02-07T08:46:08.999Z,100586.80
2019-02-07T08:49:01.030Z,100588.23
2019-02-07T08:51:55.500Z,100581.88
2019-02-07T08:54:43.325Z,100580.91
2019-02-07T08:57:48.204Z,100576.91
2019-02-07T09:00:36.160Z,100580.25
2019-02-07T09:03:28.519Z,100577.70
2019-02-07T09:06:12.166Z,100577.83
2019-02-07T09:09:07.781Z,100578.70
2019-02-07T09:11:56.221Z,100572.56
2019-02-07T09:15:00.727Z,100578.91
2019-02-07T09:17:48.565Z,100576.94
2019-02-07T09:20:25.800Z,100580.68
2019-02-07T09:23:30.403Z,100451.25
2019-02-07T09:26:34.718Z,100572.05
2019-02-07T09:29:20.050Z,100577.81
2019-02-07T09:32:05.225Z,100569.80
2019-02-07T09:34:47.701Z,100578.64
2019-02-07T09:37:39.682Z,100578.55
2019-02-07T09:40:28.006Z,100574.59
2019-02-07T09:43:15.727Z,100575.02
2019-02-07T09:46:03.647Z,100561.82
2019-02-07T09:48:51.711Z,100570.56
2019-02-07T09:51:34.794Z,100559.64
2019-02-07T09:54:23.266Z,100554.42
2019-02-07T09:57:05.848Z,100542.88
2019-02-07T10:00:10.428Z,100551.61
2019-02-07T10:03:08.380Z,100544.12
2019-02-07T10:06:12.634Z,100541.63
2019-02-07T10:09:00.652Z,100536.81
2019-02-07T10:11:50.112Z,100535.87
2019-02-07T10:14:45.503Z,100527.54
2019-02-07T10:17:41.037Z,100520.57
2019-02-07T10:20:40.289Z,100519.44
2019-02-07T10:23:23.035Z,100522.14
2019-02-07T10:26:27.894Z,100519.95
2019-02-07T10:29:31.915Z,100514.22
2019-02-07T10:32:17.815Z,100507.27
2019-02-07T10:35:23.135Z,100503.02
2019-02-07T10:38:12.604Z,100504.80
2019-02-07T10:41:10.970Z,100510.20
2019-02-07T10:43:58.733Z,100504.80
2019-02-07T10:46:48.179Z,100500.75
2019-02-07T10:49:46.306Z,100501.48
2019-02-07T10:52:41.931Z,100506.14
2019-02-07T10:55:34.376Z,100500.84
2019-02-07T10:58:27.314Z,100497.73
2019-02-07T11:01:16.999Z,100498.98
2019-02-07T11:04:12.953Z,100498.03
2019-02-07T11:07:00.803Z,100504.49
2019-02-07T11:09:59.321Z,100502.31
2019-02-07T11:12:47.583Z,100497.53
2019-02-07T11:15:49.944Z,100495.22
2019-02-07T11:18:55.056Z,100496.47
2019-02-07T11:21:39.524Z,100489.19
2019-02-07T11:24:47.076Z,100359.84
2019-02-07T11:27:45.493Z,100492.31
2019-02-07T11:30:28.199Z,100485.25
2019-02-07T11:33:20.637Z,100486.28
2019-02-07T11:36:13.245Z,100486.69
2019-02-07T11:39:01.227Z,100484.62
2019-02-07T11:41:47.834Z,100479.70
2019-02-07T11:44:35.915Z,100477.33
2019-02-07T11:47:23.929Z,100476.17
2019-02-07T11:50:13.248Z,100473.67
2019-02-07T11:53:23.502Z,100476.61
2019-02-07T11:56:11.271Z,100471.40
2019-02-07T11:59:12.817Z,100468.27
2019-02-07T12:02:08.770Z,100474.20
2019-02-07T12:04:51.062Z,100465.70
2019-02-07T12:07:40.397Z,100462.35
2019-02-07T12:10:47.824Z,100460.80
2019-02-07T12:13:30.832Z,100461.44
2019-02-07T12:16:36.893Z,100456.95
2019-02-07T12:19:32.042Z,100461.00
2019-02-07T12:22:33.254Z,100455.07
2019-02-07T12:25:36.334Z,100458.52
2019-02-07T12:28:36.228Z,100451.66
2019-02-07T12:31:24.251Z,100457.27
2019-02-07T12:34:03.785Z,100458.83
2019-02-07T12:36:43.649Z,100454.16
2019-02-07T12:39:48.421Z,100468.19
2019-02-07T12:42:43.815Z,100457.16
2019-02-07T12:45:48.421Z,100453.22
2019-02-07T12:48:50.630Z,100449.67
2019-02-07T12:51:42.905Z,100452.90
2019-02-07T12:54:32.254Z,100450.91
2019-02-07T12:57:40.223Z,100451.72
2019-02-07T13:00:31.199Z,100441.63
2019-02-07T13:03:21.109Z,100442.59
2019-02-07T13:06:06.604Z,100439.45
2019-02-07T13:08:59.037Z,100441.01
2019-02-07T13:11:51.184Z,100437.28
2019-02-07T13:14:41.915Z,100434.23
2019-02-07T13:17:31.678Z,100436.44
2019-02-07T13:20:19.774Z,100430.50
2019-02-07T13:23:14.811Z,100428.22
2019-02-07T13:26:00.051Z,100429.28
2019-02-07T13:29:04.683Z,100430.64
2019-02-07T13:31:54.205Z,100430.83
2019-02-07T13:34:49.377Z,100433.97
2019-02-07T13:37:56.763Z,100434.89
2019-02-07T13:40:46.270Z,100435.31
2019-02-07T13:43:41.826Z,100433.23
2019-02-07T13:46:22.570Z,100433.43
2019-02-07T13:49:15.336Z,100443.03
2019-02-07T13:52:05.847Z,100443.86
2019-02-07T13:55:04.820Z,100437.59
2019-02-07T13:58:12.309Z,100438.34
2019-02-07T14:01:07.482Z,100439.39
2019-02-07T14:03:56.785Z,100443.22
2019-02-07T14:06:44.452Z,100438.44
2019-02-07T14:09:39.945Z,100439.79
2019-02-07T14:12:38.271Z,100433.13
2019-02-07T14:15:23.044Z,100433.03
2019-02-07T14:18:16.665Z,100432.50
2019-02-07T14:21:24.342Z,100425.94
2019-02-07T14:24:20.456Z,100427.19
2019-02-07T14:27:08.422Z,100425.94
2019-02-07T14:30:07.011Z,100428.84
2019-02-07T14:32:55.019Z,100424.16
2019-02-07T14:36:02.617Z,100419.52
2019-02-07T14:38:54.939Z,100425.61
2019-02-07T14:41:40.125Z,100427.59
2019-02-07T14:44:38.797Z,100426.56
2019-02-07T14:47:09.343Z,100423.23
2019-02-07T14:49:40.103Z,100421.45
2019-02-07T14:52:10.857Z,100427.91
2019-02-07T14:54:41.334Z,100423.00
2019-02-07T14:57:11.902Z,100420.73
2019-02-07T14:59:42.412Z,100425.08
2019-02-07T15:02:13.102Z,100427.48
2019-02-07T15:04:44.017Z,100426.13
2019-02-07T15:07:14.636Z,100427.05
2019-02-07T15:09:45.165Z,100424.16
2019-02-07T15:12:15.873Z,100421.26
2019-02-07T15:14:46.606Z,100423.23
2019-02-07T15:17:17.268Z,100414.70
2019-02-07T15:19:48.130Z,100413.14
2019-02-07T15:22:18.864Z,100407.20
2019-02-07T15:24:49.333Z,100405.77
2019-02-07T15:27:19.845Z,100399.59
2019-02-07T15:29:50.321Z,100402.28
2019-02-07T15:32:20.835Z,100401.47
2019-02-07T15:34:53.832Z,100401.38
2019-02-07T15:37:23.623Z,100402.73
2019-02-07T15:39:54.144Z,100400.56
2019-02-07T15:42:24.617Z,100397.42
2019-02-07T15:44:55.567Z,100401.80
2019-02-07T15:47:26.130Z,100388.30
2019-02-07T15:49:56.638Z,100388.69
2019-02-07T15:52:27.113Z,100389.32
2019-02-07T15:54:57.616Z,100384.54
2019-02-07T15:57:28.107Z,100389.12
2019-02-07T16:00:01.728Z,100387.14
2019-02-07T16:02:38.697Z,100381.73
2019-02-07T16:05:11.913Z,100380.78
2019-02-07T16:07:42.429Z,100382.84
2019-02-07T16:10:14.967Z,100382.02
2019-02-07T16:12:45.430Z,100389.87
2019-02-07T16:15:16.467Z,100393.30
2019-02-07T16:17:47.122Z,100397.58
2019-02-07T16:20:18.850Z,100403.25
2019-02-07T16:22:49.657Z,100404.06
2019-02-07T16:25:20.495Z,100400.06
2019-02-07T16:27:50.989Z,100409.70
2019-02-07T16:30:21.856Z,100411.86
2019-02-07T16:32:52.366Z,100407.41
2019-02-07T16:35:23.335Z,100407.77
2019-02-07T16:37:54.074Z,100408.75
2019-02-07T16:40:24.939Z,100410.43
2019-02-07T16:42:55.619Z,100415.83
2019-02-07T16:45:26.433Z,100412.20
2019-02-07T16:47:57.051Z,100419.16
2019-02-07T16:50:27.749Z,100421.03
2019-02-07T16:52:58.249Z,100414.48
2019-02-07T16:55:28.956Z,100415.11
2019-02-07T16:57:59.656Z,100413.77
2019-02-07T17:00:30.528Z,100417.70
2019-02-07T17:03:01.368Z,100422.58
2019-02-07T17:05:31.971Z,100418.94
2019-02-07T17:08:02.542Z,100412.91
2019-02-07T17:10:34.065Z,100411.64
2019-02-07T17:13:05.232Z,100412.73
2019-02-07T17:15:36.461Z,100414.20
2019-02-07T17:18:07.171Z,100412.36
2019-02-07T17:20:37.930Z,100407.94
2019-02-07T17:23:08.689Z,100410.98
2019-02-07T17:25:39.596Z,100411.62
2019-02-07T17:28:10.303Z,100414.54
2019-02-07T17:30:40.861Z,100415.11
2019-02-07T17:33:11.548Z,100409.41
2019-02-07T17:35:42.257Z,100418.21
2019-02-07T17:38:12.745Z,100410.13
2019-02-07T17:40:43.384Z,100415.97
2019-02-07T17:43:14.323Z,100410.91
2019-02-07T17:45:44.919Z,100412.45
2019-02-07T17:48:15.766Z,100415.26
2019-02-07T17:50:46.486Z,100413.08
2019-02-07T17:53:16.955Z,100413.91
2019-02-07T17:55:47.460Z,100409.33
2019-02-07T17:58:17.960Z,100413.98
2019-02-07T18:00:57.962Z,100411.77
2019-02-07T18:03:28.572Z,100409.07
2019-02-07T18:05:59.083Z,100410.37
2019-02-07T18:08:30.140Z,100403.19
2019-02-07T18:11:00.606Z,100408.39
2019-02-07T18:13:31.129Z,100408.39
2019-02-07T18:16:01.591Z,100410.90
2019-02-07T18:18:32.051Z,100407.16
2019-02-07T18:21:02.963Z,100411.39
2019-02-07T18:23:33.630Z,100416.47
2019-02-07T18:26:04.251Z,100414.04
2019-02-07T18:28:34.781Z,100414.38
2019-02-07T18:31:05.499Z,100415.91
2019-02-07T18:33:36.116Z,100415.39
2019-02-07T18:36:06.678Z,100283.39
2019-02-07T18:38:37.184Z,100415.20
2019-02-07T18:41:07.749Z,100411.34
2019-02-07T18:43:38.241Z,100410.00
2019-02-07T18:46:08.876Z,100408.48
2019-02-07T18:48:39.349Z,100409.50
2019-02-07T18:51:10.093Z,100416.70
2019-02-07T18:53:40.610Z,100415.66
2019-02-07T18:56:11.133Z,100422.02
2019-02-07T18:58:41.609Z,100418.75
2019-02-07T19:01:12.208Z,100416.19
2019-02-07T19:03:42.678Z,100421.27
2019-02-07T19:06:13.188Z,100422.81
2019-02-07T19:08:43.816Z,100424.98
2019-02-07T19:11:14.324Z,100426.58
2019-02-07T19:13:44.833Z,100429.55
2019-02-07T19:16:17.066Z,100427.74
2019-02-07T19:18:47.846Z,100425.30
2019-02-07T19:21:18.299Z,100431.96
2019-02-07T19:23:48.834Z,100427.50
2019-02-07T19:26:19.302Z,100429.66
2019-02-07T19:28:49.797Z,100430.44
2019-02-07T19:31:20.273Z,100436.13
2019-02-07T19:33:50.795Z,100432.91
2019-02-07T19:36:21.272Z,100437.16
2019-02-07T19:38:51.790Z,100440.34
2019-02-07T19:41:22.245Z,100436.83
2019-02-07T19:43:52.758Z,100430.44
2019-02-07T19:46:23.582Z,100432.66
2019-02-07T19:48:54.078Z,100430.31
2019-02-07T19:51:24.633Z,100421.59
2019-02-07T19:53:55.247Z,100415.41
2019-02-07T19:56:25.711Z,100417.45
2019-02-07T19:58:56.400Z,100411.89
2019-02-07T20:01:27.145Z,100406.14
2019-02-07T20:03:59.149Z,100414.34
2019-02-07T20:06:29.621Z,100409.20
2019-02-07T20:09:00.361Z,100407.42
2019-02-07T20:11:30.866Z,100406.72
2019-02-07T20:14:01.639Z,100404.80
2019-02-07T20:16:32.093Z,100400.57
2019-02-07T20:19:02.595Z,100399.66
2019-02-07T20:21:33.094Z,100396.95
2019-02-07T20:24:03.688Z,100393.04
2019-02-07T20:26:34.173Z,100395.17
2019-02-07T20:29:04.769Z,100393.13
2019-02-07T20:31:35.265Z,100389.79
2019-02-07T20:34:05.852Z,100393.77
2019-02-07T20:36:36.359Z,100392.42
2019-02-07T20:39:09.692Z,100394.72
2019-02-07T20:41:40.163Z,100392.61
2019-02-07T20:44:10.669Z,100386.19
2019-02-07T20:46:41.190Z,100388.52
2019-02-07T20:49:11.803Z,100390.56
2019-02-07T20:51:42.278Z,100389.52
2019-02-07T20:54:12.790Z,100393.11
2019-02-07T20:56:43.292Z,100392.52
2019-02-07T20:59:14.266Z,100393.22
2019-02-07T21:01:44.775Z,100387.35
2019-02-07T21:04:15.247Z,100383.73
2019-02-07T21:06:45.753Z,100379.88
2019-02-07T21:09:16.224Z,100374.72
2019-02-07T21:11:46.724Z,100240.33
2019-02-07T21:14:17.475Z,100370.03
2019-02-07T21:16:47.942Z,100372.08
2019-02-07T21:19:18.401Z,100372.39
2019-02-07T21:21:48.936Z,100369.91
2019-02-07T21:24:19.410Z,100372.02
2019-02-07T21:26:49.868Z,100376.06
2019-02-07T21:29:20.641Z,100374.38
2019-02-07T21:31:51.109Z,100371.81
2019-02-07T21:34:21.613Z,100369.45
2019-02-07T21:36:52.083Z,100367.53
2019-02-07T21:39:22.614Z,100372.97
2019-02-07T21:41:53.186Z,100372.27
2019-02-07T21:44:23.857Z,100370.09
2019-02-07T21:46:54.384Z,100370.73
2019-02-07T21:49:24.862Z,100374.12
2019-02-07T21:51:55.358Z,100373.42
2019-02-07T21:54:25.925Z,100234.80
2019-02-07T21:56:56.553Z,100369.87
2019-02-07T21:59:27.294Z,100374.89
2019-02-07T22:01:57.789Z,100379.50
2019-02-07T22:04:28.254Z,100374.60
2019-02-07T22:06:58.758Z,100373.72
2019-02-07T22:09:29.216Z,100374.70
2019-02-07T22:11:59.704Z,100375.02
2019-02-07T22:14:30.193Z,100377.19
2019-02-07T22:17:00.709Z,100370.15
2019-02-07T22:19:31.184Z,100372.96
2019-02-07T22:22:01.694Z,100373.61
2019-02-07T22:24:32.211Z,100375.14
2019-02-07T22:27:02.899Z,100374.07
2019-02-07T22:29:33.357Z,100371.56
2019-02-07T22:32:03.950Z,100372.21
2019-02-07T22:34:34.405Z,100370.28
2019-02-07T22:37:04.971Z,100366.77
2019-02-07T22:39:35.468Z,100369.40
2019-02-07T22:42:06.144Z,100368.05
2019-02-07T22:44:36.712Z,100369.00
2019-02-07T22:47:07.320Z,100366.95
2019-02-07T22:49:37.816Z,100361.91
2019-02-07T22:52:08.277Z,100363.77
2019-02-07T22:54:38.951Z,100365.94
2019-02-07T22:57:09.450Z,100364.53
2019-02-07T22:59:39.896Z,100364.84
2019-02-07T23:02:11.160Z,100362.02
2019-02-07T23:04:41.651Z,100368.57
2019-02-07T23:07:12.132Z,100363.62
2019-02-07T23:09:42.579Z,100362.42
2019-02-07T23:12:13.071Z,100361.38
2019-02-07T23:14:43.628Z,100365.36
2019-02-07T23:17:14.293Z,100369.00
2019-02-07T23:19:44.803Z,100364.66
2019-02-07T23:22:15.756Z,100366.70
2019-02-07T23:24:46.263Z,100365.06
2019-02-07T23:27:16.733Z,100365.06
2019-02-07T23:29:47.235Z,100368.76
2019-02-07T23:32:17.684Z,100361.27
2019-02-07T23:34:48.197Z,100365.36
2019-02-07T23:37:18.666Z,100362.73
2019-02-07T23:39:49.098Z,100351.20
2019-02-07T23:42:19.811Z,100361.97
2019-02-07T23:44:50.258Z,100354.59
2019-02-07T23:47:20.730Z,100353.83
2019-02-07T23:49:51.234Z,100352.36
2019-02-07T23:52:21.910Z,100343.52
2019-02-07T23:54:52.481Z,100340.67
2019-02-07T23:57:23.338Z,100344.53
2019-02-07T23:59:53.834Z,100344.98
